Terminal Aerodrome Forecast
Issued by NWS Greer, SC

Current Version | Previous Version | Text Only | Print | Product List | Glossary On
Versions: 1 2 3 4 5 6 7 8 9 10 11 12 13 14 15
000
FTUS42 KGSP 302325
TAFGSP
TAF
KGSP 302325Z 0100/0124 20005KT P6SM FEW060
     FM010300 VRB03KT P6SM SKC
     FM011600 22006KT P6SM FEW070=

USA.gov is the U.S. government's official web portal to all federal, state and local government web resources and services.